Language selection

Weather shortcuts

Resolution - eastern half: Past 24 Hour Conditions

 

CFB Goose Bay

09:00 PM ADT 16 June 2024
Disclaimer

This table is a summary of hourly weather conditions for the past 24 hours.
Please note that these observations might not always be representative of weather conditions over their associated marine area.

Date / Time
(ADT)
Wind(knots) Conditions Visibility(km) Pressure(kPa) Air tempC) Relative humidity(%) Dew pointC)
16 June 2024
21:00 WSW 3 Mainly Sunny 24 101.1 16 41 3
20:00 W 10 Mainly Sunny 24 101.1 18 34 2
19:00 WNW 10 gusts 16 Mostly Cloudy 24 101.1 19 34 2
18:00 WNW 10 Mostly Cloudy 24 101.0 19 33 2
17:00 WNW 12 gusts 22 Partly Cloudy 24 101.0 20 29 1
16:00 WNW 9 gusts 16 Partly Cloudy 24 101.0 20 26 0
15:00 W 9 gusts 19 Partly Cloudy 24 101.0 19 26 -1
14:00 NW 9 gusts 17 Partly Cloudy 24 101.1 18 28 -1
13:00 NNW 13 Mostly Cloudy 24 101.1 16 32 0
12:00 NW 10 Mostly Cloudy 24 101.2 15 38 1
11:00 WNW 8 Mostly Cloudy 24 101.2 14 43 2
10:00 N 13 gusts 18 Mostly Cloudy 24 101.3 14 42 2
9:00 NNW 11 Mainly Sunny 24 101.3 13 49 2
8:00 NW 10 gusts 17 Mainly Sunny 24 101.3 11 54 2
7:00 WNW 5 Mostly Cloudy 24 101.3 10 63 3
6:00 WNW 6 Mainly Sunny 24 101.3 7 72 2
5:00 NW 6 Partly Cloudy 24 101.2 7 71 2
4:00 NNW 10 gusts 17 Partly Cloudy 24 101.2 9 64 3
3:00 WNW 8 gusts 23 Mostly Cloudy 24 101.1 10 61 3
2:00 NW 7 Mostly Cloudy 24 101.0 11 56 3
1:00 NW 9 Partly Cloudy 24 101.0 12 48 2
0:00 WNW 8 Mostly Cloudy 24 100.9 13 44 1
15 June 2024
23:00 WNW 7 Mostly Cloudy 24 100.9 12 56 4
22:00 W 5 Mostly Cloudy 24 100.9 14 54 5
21:00 WNW 5 Mostly Cloudy 24 100.9 16 47 5

Zoom-in to make a selection

Map of Atlantic - Labrador marine weather areas Kangiqsualujjuaq Airport Cape Kakkiviak Cape Kiglapait Cartwright Airport CFB Goose Bay Hopedale Mary's Harbour Nain Airport Makkovik Airport Saglek Tukialik Bay
Legend:
buoy Buoy
land station Land Station

Atlantic - Labrador Area

Another Region

Features

New Predicting and Alerting Coastal Flooding Program

Find out about coastal flooding coverage, forecasts and warnings in your region

Date modified: